sensor_id;sensor_type;location;lat;lon;timestamp;temperature;humidity
3005;DHT22;1512;51.486;6.610;2022-10-30T00:02:14;16.40;99.90
3005;DHT22;1512;51.486;6.610;2022-10-30T00:06:43;16.40;99.90
3005;DHT22;1512;51.486;6.610;2022-10-30T00:10:52;16.40;99.90
3005;DHT22;1512;51.486;6.610;2022-10-30T00:15:01;16.40;99.90
3005;DHT22;1512;51.486;6.610;2022-10-30T00:19:10;16.40;99.90
3005;DHT22;1512;51.486;6.610;2022-10-30T00:23:19;16.40;99.90
3005;DHT22;1512;51.486;6.610;2022-10-30T00:27:28;16.40;99.90
3005;DHT22;1512;51.486;6.610;2022-10-30T00:31:36;16.40;99.90
3005;DHT22;1512;51.486;6.610;2022-10-30T00:35:48;16.40;99.90
3005;DHT22;1512;51.486;6.610;2022-10-30T00:39:57;16.40;99.90
3005;DHT22;1512;51.486;6.610;2022-10-30T00:44:41;16.30;99.90
3005;DHT22;1512;51.486;6.610;2022-10-30T00:49:11;16.30;99.90
3005;DHT22;1512;51.486;6.610;2022-10-30T00:53:21;16.20;99.90
3005;DHT22;1512;51.486;6.610;2022-10-30T00:57:29;16.20;99.90
3005;DHT22;1512;51.486;6.610;2022-10-30T01:01:41;16.20;99.90
3005;DHT22;1512;51.486;6.610;2022-10-30T01:06:11;16.20;99.90
3005;DHT22;1512;51.486;6.610;2022-10-30T01:10:21;16.20;99.90
3005;DHT22;1512;51.486;6.610;2022-10-30T01:14:30;16.10;99.90
3005;DHT22;1512;51.486;6.610;2022-10-30T01:19:12;16.10;99.90
3005;DHT22;1512;51.486;6.610;2022-10-30T01:36:32;16.00;99.90
3005;DHT22;1512;51.486;6.610;2022-10-30T01:40:45;15.90;99.90
3005;DHT22;1512;51.486;6.610;2022-10-30T01:44:54;15.90;99.90
3005;DHT22;1512;51.486;6.610;2022-10-30T01:58:27;15.70;99.90
3005;DHT22;1512;51.486;6.610;2022-10-30T02:02:35;15.70;99.90
3005;DHT22;1512;51.486;6.610;2022-10-30T02:07:04;15.60;99.90
3005;DHT22;1512;51.486;6.610;2022-10-30T02:11:13;15.50;99.90
3005;DHT22;1512;51.486;6.610;2022-10-30T02:15:22;15.40;99.90
3005;DHT22;1512;51.486;6.610;2022-10-30T02:19:30;15.40;99.90
3005;DHT22;1512;51.486;6.610;2022-10-30T02:23:39;15.30;99.90
3005;DHT22;1512;51.486;6.610;2022-10-30T02:27:48;15.30;99.90
3005;DHT22;1512;51.486;6.610;2022-10-30T02:31:56;15.20;99.90
3005;DHT22;1512;51.486;6.610;2022-10-30T02:36:05;15.20;99.90
3005;DHT22;1512;51.486;6.610;2022-10-30T02:40:14;15.10;99.90
3005;DHT22;1512;51.486;6.610;2022-10-30T02:44:24;15.10;99.90
3005;DHT22;1512;51.486;6.610;2022-10-30T02:48:33;15.10;99.90
3005;DHT22;1512;51.486;6.610;2022-10-30T02:52:42;15.10;99.90
3005;DHT22;1512;51.486;6.610;2022-10-30T02:56:51;15.10;99.90
3005;DHT22;1512;51.486;6.610;2022-10-30T03:01:11;15.00;99.90
3005;DHT22;1512;51.486;6.610;2022-10-30T03:05:20;15.00;99.90
3005;DHT22;1512;51.486;6.610;2022-10-30T03:09:28;15.00;99.90
3005;DHT22;1512;51.486;6.610;2022-10-30T03:13:38;14.90;99.90
3005;DHT22;1512;51.486;6.610;2022-10-30T03:17:50;14.90;99.90
3005;DHT22;1512;51.486;6.610;2022-10-30T03:21:59;14.80;99.90
3005;DHT22;1512;51.486;6.610;2022-10-30T03:26:09;14.80;99.90
3005;DHT22;1512;51.486;6.610;2022-10-30T03:30:18;14.70;99.90
3005;DHT22;1512;51.486;6.610;2022-10-30T03:34:28;14.70;99.90
3005;DHT22;1512;51.486;6.610;2022-10-30T03:38:48;14.70;99.90
3005;DHT22;1512;51.486;6.610;2022-10-30T03:42:56;14.70;99.90
3005;DHT22;1512;51.486;6.610;2022-10-30T03:47:25;14.70;99.90
3005;DHT22;1512;51.486;6.610;2022-10-30T03:51:33;14.60;99.90
3005;DHT22;1512;51.486;6.610;2022-10-30T03:55:42;14.60;99.90
3005;DHT22;1512;51.486;6.610;2022-10-30T03:59:52;14.60;99.90
3005;DHT22;1512;51.486;6.610;2022-10-30T04:04:00;14.50;99.90
3005;DHT22;1512;51.486;6.610;2022-10-30T04:08:13;14.50;99.90
3005;DHT22;1512;51.486;6.610;2022-10-30T04:12:22;14.50;99.90
3005;DHT22;1512;51.486;6.610;2022-10-30T04:16:30;14.50;99.90
3005;DHT22;1512;51.486;6.610;2022-10-30T04:20:40;14.40;99.90
3005;DHT22;1512;51.486;6.610;2022-10-30T04:24:49;14.40;99.90
3005;DHT22;1512;51.486;6.610;2022-10-30T04:28:57;14.40;99.90
3005;DHT22;1512;51.486;6.610;2022-10-30T04:33:25;14.40;99.90
3005;DHT22;1512;51.486;6.610;2022-10-30T04:37:35;14.30;99.90
3005;DHT22;1512;51.486;6.610;2022-10-30T04:41:43;14.20;99.90
3005;DHT22;1512;51.486;6.610;2022-10-30T04:45:53;14.20;99.90
3005;DHT22;1512;51.486;6.610;2022-10-30T04:50:02;14.20;99.90
3005;DHT22;1512;51.486;6.610;2022-10-30T04:54:11;14.10;99.90
3005;DHT22;1512;51.486;6.610;2022-10-30T04:58:19;14.10;99.90
3005;DHT22;1512;51.486;6.610;2022-10-30T05:02:28;14.00;99.90
3005;DHT22;1512;51.486;6.610;2022-10-30T05:06:37;14.00;99.90
3005;DHT22;1512;51.486;6.610;2022-10-30T05:10:46;13.90;99.90
3005;DHT22;1512;51.486;6.610;2022-10-30T05:14:55;13.90;99.90
3005;DHT22;1512;51.486;6.610;2022-10-30T05:19:03;13.90;99.90
3005;DHT22;1512;51.486;6.610;2022-10-30T05:23:12;13.90;99.90
3005;DHT22;1512;51.486;6.610;2022-10-30T05:27:20;13.80;99.90
3005;DHT22;1512;51.486;6.610;2022-10-30T05:31:29;13.80;99.90
3005;DHT22;1512;51.486;6.610;2022-10-30T05:35:38;13.70;99.90
3005;DHT22;1512;51.486;6.610;2022-10-30T05:39:46;13.60;99.90
3005;DHT22;1512;51.486;6.610;2022-10-30T05:44:16;13.60;99.90
3005;DHT22;1512;51.486;6.610;2022-10-30T05:48:28;13.60;99.90
3005;DHT22;1512;51.486;6.610;2022-10-30T05:56:57;13.60;99.90
3005;DHT22;1512;51.486;6.610;2022-10-30T06:01:06;13.60;99.90
3005;DHT22;1512;51.486;6.610;2022-10-30T06:05:15;13.50;99.90
3005;DHT22;1512;51.486;6.610;2022-10-30T06:09:25;13.50;99.90
3005;DHT22;1512;51.486;6.610;2022-10-30T06:13:33;13.40;99.90
3005;DHT22;1512;51.486;6.610;2022-10-30T06:17:42;13.40;99.90
3005;DHT22;1512;51.486;6.610;2022-10-30T06:21:50;13.40;99.90
3005;DHT22;1512;51.486;6.610;2022-10-30T06:26:01;13.40;99.90
3005;DHT22;1512;51.486;6.610;2022-10-30T06:30:10;13.40;99.90
3005;DHT22;1512;51.486;6.610;2022-10-30T06:34:18;13.40;99.90
3005;DHT22;1512;51.486;6.610;2022-10-30T06:38:47;13.30;99.90
3005;DHT22;1512;51.486;6.610;2022-10-30T06:42:56;13.30;99.90
3005;DHT22;1512;51.486;6.610;2022-10-30T06:47:05;13.30;99.90
3005;DHT22;1512;51.486;6.610;2022-10-30T06:51:15;13.30;99.90
3005;DHT22;1512;51.486;6.610;2022-10-30T06:55:24;13.30;99.90
3005;DHT22;1512;51.486;6.610;2022-10-30T06:59:52;13.30;99.90
3005;DHT22;1512;51.486;6.610;2022-10-30T07:04:01;13.30;99.90
3005;DHT22;1512;51.486;6.610;2022-10-30T07:08:09;13.30;99.90
3005;DHT22;1512;51.486;6.610;2022-10-30T07:12:38;13.30;99.90
3005;DHT22;1512;51.486;6.610;2022-10-30T07:16:46;13.30;99.90
3005;DHT22;1512;51.486;6.610;2022-10-30T07:20:55;13.30;99.90
3005;DHT22;1512;51.486;6.610;2022-10-30T07:25:04;13.30;99.90
3005;DHT22;1512;51.486;6.610;2022-10-30T07:29:13;13.30;99.90
3005;DHT22;1512;51.486;6.610;2022-10-30T07:33:22;13.30;99.90
3005;DHT22;1512;51.486;6.610;2022-10-30T07:37:30;13.30;99.90
3005;DHT22;1512;51.486;6.610;2022-10-30T07:41:39;13.30;99.90
3005;DHT22;1512;51.486;6.610;2022-10-30T07:45:49;13.30;99.90
3005;DHT22;1512;51.486;6.610;2022-10-30T07:49:58;13.40;99.90
3005;DHT22;1512;51.486;6.610;2022-10-30T07:54:06;13.50;99.90
3005;DHT22;1512;51.486;6.610;2022-10-30T07:58:15;13.60;99.90
3005;DHT22;1512;51.486;6.610;2022-10-30T08:02:24;13.70;99.90
3005;DHT22;1512;51.486;6.610;2022-10-30T08:06:33;13.80;99.90
3005;DHT22;1512;51.486;6.610;2022-10-30T08:10:42;13.90;99.90
3005;DHT22;1512;51.486;6.610;2022-10-30T08:15:10;14.10;99.90
3005;DHT22;1512;51.486;6.610;2022-10-30T08:19:19;14.20;99.90
3005;DHT22;1512;51.486;6.610;2022-10-30T08:23:27;14.40;99.90
3005;DHT22;1512;51.486;6.610;2022-10-30T08:27:36;14.60;99.90
3005;DHT22;1512;51.486;6.610;2022-10-30T08:31:49;14.70;99.90
3005;DHT22;1512;51.486;6.610;2022-10-30T08:35:59;14.90;99.90
3005;DHT22;1512;51.486;6.610;2022-10-30T08:40:28;15.00;99.90
3005;DHT22;1512;51.486;6.610;2022-10-30T08:44:56;15.20;99.90
3005;DHT22;1512;51.486;6.610;2022-10-30T08:49:04;15.30;99.90
3005;DHT22;1512;51.486;6.610;2022-10-30T08:53:14;15.50;99.90
3005;DHT22;1512;51.486;6.610;2022-10-30T08:57:23;15.70;99.90
3005;DHT22;1512;51.486;6.610;2022-10-30T09:01:32;15.80;99.90
3005;DHT22;1512;51.486;6.610;2022-10-30T09:05:40;15.90;99.90
3005;DHT22;1512;51.486;6.610;2022-10-30T09:09:49;16.10;99.90
3005;DHT22;1512;51.486;6.610;2022-10-30T09:13:58;16.10;99.90
3005;DHT22;1512;51.486;6.610;2022-10-30T09:18:07;16.10;99.90
3005;DHT22;1512;51.486;6.610;2022-10-30T09:22:16;16.20;99.90
3005;DHT22;1512;51.486;6.610;2022-10-30T09:26:25;16.30;99.90
3005;DHT22;1512;51.486;6.610;2022-10-30T09:30:34;16.40;99.90
3005;DHT22;1512;51.486;6.610;2022-10-30T09:34:53;16.50;99.90
3005;DHT22;1512;51.486;6.610;2022-10-30T09:39:01;16.50;99.90
3005;DHT22;1512;51.486;6.610;2022-10-30T09:48:22;16.70;99.90
3005;DHT22;1512;51.486;6.610;2022-10-30T09:52:41;16.90;99.90
3005;DHT22;1512;51.486;6.610;2022-10-30T09:56:44;17.00;99.90
3005;DHT22;1512;51.486;6.610;2022-10-30T10:01:16;17.10;99.90
3005;DHT22;1512;51.486;6.610;2022-10-30T10:09:55;17.20;99.90
3005;DHT22;1512;51.486;6.610;2022-10-30T10:14:07;17.30;99.90
3005;DHT22;1512;51.486;6.610;2022-10-30T10:18:28;17.40;99.90
3005;DHT22;1512;51.486;6.610;2022-10-30T10:22:44;17.50;99.90
3005;DHT22;1512;51.486;6.610;2022-10-30T10:40:17;18.00;99.90
3005;DHT22;1512;51.486;6.610;2022-10-30T10:44:44;18.10;99.90
3005;DHT22;1512;51.486;6.610;2022-10-30T10:53:29;18.20;99.90
3005;DHT22;1512;51.486;6.610;2022-10-30T10:57:37;18.20;99.90
3005;DHT22;1512;51.486;6.610;2022-10-30T11:01:59;18.30;99.90
3005;DHT22;1512;51.486;6.610;2022-10-30T11:10:22;18.40;99.90
3005;DHT22;1512;51.486;6.610;2022-10-30T11:14:32;18.40;99.90
3005;DHT22;1512;51.486;6.610;2022-10-30T11:18:41;18.50;99.90
3005;DHT22;1512;51.486;6.610;2022-10-30T11:22:51;18.50;99.90
3005;DHT22;1512;51.486;6.610;2022-10-30T11:27:22;18.50;99.90
3005;DHT22;1512;51.486;6.610;2022-10-30T11:31:34;18.60;99.90
3005;DHT22;1512;51.486;6.610;2022-10-30T11:35:45;18.70;99.90
3005;DHT22;1512;51.486;6.610;2022-10-30T11:44:22;18.70;99.90
3005;DHT22;1512;51.486;6.610;2022-10-30T11:48:32;18.80;99.90
3005;DHT22;1512;51.486;6.610;2022-10-30T11:52:42;18.80;99.90
3005;DHT22;1512;51.486;6.610;2022-10-30T11:56:51;18.90;99.90
3005;DHT22;1512;51.486;6.610;2022-10-30T12:01:03;19.00;99.90
3005;DHT22;1512;51.486;6.610;2022-10-30T12:09:45;19.20;99.90
3005;DHT22;1512;51.486;6.610;2022-10-30T12:14:17;19.20;99.90
3005;DHT22;1512;51.486;6.610;2022-10-30T12:18:26;19.40;99.90
3005;DHT22;1512;51.486;6.610;2022-10-30T12:22:35;19.40;99.90
3005;DHT22;1512;51.486;6.610;2022-10-30T12:26:47;19.50;99.90
3005;DHT22;1512;51.486;6.610;2022-10-30T12:44:38;19.40;99.90
3005;DHT22;1512;51.486;6.610;2022-10-30T12:48:52;19.40;99.90
3005;DHT22;1512;51.486;6.610;2022-10-30T12:53:23;19.40;99.90
3005;DHT22;1512;51.486;6.610;2022-10-30T13:06:48;19.40;99.90
3005;DHT22;1512;51.486;6.610;2022-10-30T13:11:27;19.40;99.90
3005;DHT22;1512;51.486;6.610;2022-10-30T13:15:43;19.40;99.90
3005;DHT22;1512;51.486;6.610;2022-10-30T13:19:51;19.40;99.90
3005;DHT22;1512;51.486;6.610;2022-10-30T13:24:08;19.40;99.90
3005;DHT22;1512;51.486;6.610;2022-10-30T13:32:44;19.40;99.90
3005;DHT22;1512;51.486;6.610;2022-10-30T13:36:57;19.30;99.90
3005;DHT22;1512;51.486;6.610;2022-10-30T13:41:37;19.40;99.90
3005;DHT22;1512;51.486;6.610;2022-10-30T13:46:08;19.40;99.90
3005;DHT22;1512;51.486;6.610;2022-10-30T13:50:45;19.50;99.90
3005;DHT22;1512;51.486;6.610;2022-10-30T13:59:27;19.60;99.90
3005;DHT22;1512;51.486;6.610;2022-10-30T14:08:41;19.60;99.90
3005;DHT22;1512;51.486;6.610;2022-10-30T14:17:27;19.60;99.90
3005;DHT22;1512;51.486;6.610;2022-10-30T14:21:42;19.60;99.90
3005;DHT22;1512;51.486;6.610;2022-10-30T14:30:19;19.50;99.90
3005;DHT22;1512;51.486;6.610;2022-10-30T14:43:47;19.20;99.90
3005;DHT22;1512;51.486;6.610;2022-10-30T14:48:21;19.10;99.90
3005;DHT22;1512;51.486;6.610;2022-10-30T14:52:35;19.10;99.90
3005;DHT22;1512;51.486;6.610;2022-10-30T14:56:50;19.10;99.90
3005;DHT22;1512;51.486;6.610;2022-10-30T15:05:38;19.00;99.90
3005;DHT22;1512;51.486;6.610;2022-10-30T15:14:17;18.90;99.90
3005;DHT22;1512;51.486;6.610;2022-10-30T15:18:24;18.80;99.90
3005;DHT22;1512;51.486;6.610;2022-10-30T15:22:35;18.70;99.90
3005;DHT22;1512;51.486;6.610;2022-10-30T15:26:46;18.70;99.90
3005;DHT22;1512;51.486;6.610;2022-10-30T15:35:48;18.70;99.90
3005;DHT22;1512;51.486;6.610;2022-10-30T15:40:17;18.60;99.90
3005;DHT22;1512;51.486;6.610;2022-10-30T15:44:29;18.50;99.90
3005;DHT22;1512;51.486;6.610;2022-10-30T15:48:39;18.40;99.90
3005;DHT22;1512;51.486;6.610;2022-10-30T15:52:49;18.40;99.90
3005;DHT22;1512;51.486;6.610;2022-10-30T15:56:59;18.30;99.90
3005;DHT22;1512;51.486;6.610;2022-10-30T16:01:22;18.20;99.90
3005;DHT22;1512;51.486;6.610;2022-10-30T16:05:22;18.20;99.90
3005;DHT22;1512;51.486;6.610;2022-10-30T16:09:54;18.10;99.90
3005;DHT22;1512;51.486;6.610;2022-10-30T16:14:09;18.00;99.90
3005;DHT22;1512;51.486;6.610;2022-10-30T16:18:36;17.90;99.90
3005;DHT22;1512;51.486;6.610;2022-10-30T16:22:42;17.80;99.90
3005;DHT22;1512;51.486;6.610;2022-10-30T16:27:12;17.70;99.90
3005;DHT22;1512;51.486;6.610;2022-10-30T16:31:11;17.50;99.90
3005;DHT22;1512;51.486;6.610;2022-10-30T16:35:23;17.50;99.90
3005;DHT22;1512;51.486;6.610;2022-10-30T16:39:33;17.40;99.90
3005;DHT22;1512;51.486;6.610;2022-10-30T16:43:58;17.30;99.90
3005;DHT22;1512;51.486;6.610;2022-10-30T16:47:58;17.20;99.90
3005;DHT22;1512;51.486;6.610;2022-10-30T16:52:12;17.10;99.90
3005;DHT22;1512;51.486;6.610;2022-10-30T16:56:27;17.00;99.90
3005;DHT22;1512;51.486;6.610;2022-10-30T17:00:36;17.00;99.90
3005;DHT22;1512;51.486;6.610;2022-10-30T17:04:49;16.90;99.90
3005;DHT22;1512;51.486;6.610;2022-10-30T17:09:00;16.80;99.90
3005;DHT22;1512;51.486;6.610;2022-10-30T17:13:35;16.80;99.90
3005;DHT22;1512;51.486;6.610;2022-10-30T17:18:07;16.70;99.90
3005;DHT22;1512;51.486;6.610;2022-10-30T17:22:00;16.60;99.90
3005;DHT22;1512;51.486;6.610;2022-10-30T17:26:12;16.60;99.90
3005;DHT22;1512;51.486;6.610;2022-10-30T17:30:35;16.50;99.90
3005;DHT22;1512;51.486;6.610;2022-10-30T17:34:45;16.50;99.90
3005;DHT22;1512;51.486;6.610;2022-10-30T17:38:53;16.50;99.90
3005;DHT22;1512;51.486;6.610;2022-10-30T17:43:02;16.40;99.90
3005;DHT22;1512;51.486;6.610;2022-10-30T17:47:16;16.40;99.90
3005;DHT22;1512;51.486;6.610;2022-10-30T17:51:26;16.40;99.90
3005;DHT22;1512;51.486;6.610;2022-10-30T17:55:36;16.40;99.90
3005;DHT22;1512;51.486;6.610;2022-10-30T17:59:45;16.30;99.90
3005;DHT22;1512;51.486;6.610;2022-10-30T18:03:55;16.30;99.90
3005;DHT22;1512;51.486;6.610;2022-10-30T18:08:03;16.20;99.90
3005;DHT22;1512;51.486;6.610;2022-10-30T18:12:14;16.20;99.90
3005;DHT22;1512;51.486;6.610;2022-10-30T18:16:42;16.10;99.90
3005;DHT22;1512;51.486;6.610;2022-10-30T18:20:51;16.10;99.90
3005;DHT22;1512;51.486;6.610;2022-10-30T18:24:59;16.10;99.90
3005;DHT22;1512;51.486;6.610;2022-10-30T18:29:09;16.00;99.90
3005;DHT22;1512;51.486;6.610;2022-10-30T18:33:18;16.00;99.90
3005;DHT22;1512;51.486;6.610;2022-10-30T18:37:27;16.00;99.90
3005;DHT22;1512;51.486;6.610;2022-10-30T18:41:39;16.00;99.90
3005;DHT22;1512;51.486;6.610;2022-10-30T18:45:47;16.00;99.90
3005;DHT22;1512;51.486;6.610;2022-10-30T18:49:56;16.00;99.90
3005;DHT22;1512;51.486;6.610;2022-10-30T18:54:15;16.00;99.90
3005;DHT22;1512;51.486;6.610;2022-10-30T18:58:23;16.00;99.90
3005;DHT22;1512;51.486;6.610;2022-10-30T19:02:32;16.00;99.90
3005;DHT22;1512;51.486;6.610;2022-10-30T19:06:41;15.90;99.90
3005;DHT22;1512;51.486;6.610;2022-10-30T19:10:49;15.90;99.90
3005;DHT22;1512;51.486;6.610;2022-10-30T19:15:00;15.90;99.90
3005;DHT22;1512;51.486;6.610;2022-10-30T19:19:08;15.90;99.90
3005;DHT22;1512;51.486;6.610;2022-10-30T19:23:21;15.90;99.90
3005;DHT22;1512;51.486;6.610;2022-10-30T19:27:31;15.80;99.90
3005;DHT22;1512;51.486;6.610;2022-10-30T19:31:40;15.80;99.90
3005;DHT22;1512;51.486;6.610;2022-10-30T19:35:53;15.80;99.90
3005;DHT22;1512;51.486;6.610;2022-10-30T19:44:53;15.80;99.90
3005;DHT22;1512;51.486;6.610;2022-10-30T19:49:18;15.70;99.90
3005;DHT22;1512;51.486;6.610;2022-10-30T19:53:27;15.70;99.90
3005;DHT22;1512;51.486;6.610;2022-10-30T19:57:56;15.60;99.90
3005;DHT22;1512;51.486;6.610;2022-10-30T20:02:05;15.60;99.90
3005;DHT22;1512;51.486;6.610;2022-10-30T20:06:14;15.60;99.90
3005;DHT22;1512;51.486;6.610;2022-10-30T20:10:23;15.50;99.90
3005;DHT22;1512;51.486;6.610;2022-10-30T20:14:31;15.50;99.90
3005;DHT22;1512;51.486;6.610;2022-10-30T20:18:40;15.40;99.90
3005;DHT22;1512;51.486;6.610;2022-10-30T20:22:49;15.40;99.90
3005;DHT22;1512;51.486;6.610;2022-10-30T20:26:57;15.40;99.90
3005;DHT22;1512;51.486;6.610;2022-10-30T20:31:07;15.30;99.90
3005;DHT22;1512;51.486;6.610;2022-10-30T20:35:17;15.30;99.90
3005;DHT22;1512;51.486;6.610;2022-10-30T20:39:26;15.20;99.90
3005;DHT22;1512;51.486;6.610;2022-10-30T20:43:38;15.20;99.90
3005;DHT22;1512;51.486;6.610;2022-10-30T20:47:47;15.20;99.90
3005;DHT22;1512;51.486;6.610;2022-10-30T20:51:56;15.20;99.90
3005;DHT22;1512;51.486;6.610;2022-10-30T20:56:05;15.10;99.90
3005;DHT22;1512;51.486;6.610;2022-10-30T21:00:14;15.10;99.90
3005;DHT22;1512;51.486;6.610;2022-10-30T21:04:22;15.20;99.90
3005;DHT22;1512;51.486;6.610;2022-10-30T21:08:31;15.20;99.90
3005;DHT22;1512;51.486;6.610;2022-10-30T21:12:41;15.30;99.90
3005;DHT22;1512;51.486;6.610;2022-10-30T21:16:50;15.30;99.90
3005;DHT22;1512;51.486;6.610;2022-10-30T21:21:03;15.30;99.90
3005;DHT22;1512;51.486;6.610;2022-10-30T21:25:12;15.30;99.90
3005;DHT22;1512;51.486;6.610;2022-10-30T21:29:20;15.30;99.90
3005;DHT22;1512;51.486;6.610;2022-10-30T21:33:30;15.30;99.90
3005;DHT22;1512;51.486;6.610;2022-10-30T21:37:39;15.30;99.90
3005;DHT22;1512;51.486;6.610;2022-10-30T21:42:08;15.30;99.90
3005;DHT22;1512;51.486;6.610;2022-10-30T21:46:17;15.30;99.90
3005;DHT22;1512;51.486;6.610;2022-10-30T21:50:26;15.30;99.90
3005;DHT22;1512;51.486;6.610;2022-10-30T21:54:34;15.30;99.90
3005;DHT22;1512;51.486;6.610;2022-10-30T21:58:43;15.30;99.90
3005;DHT22;1512;51.486;6.610;2022-10-30T22:02:54;15.30;99.90
3005;DHT22;1512;51.486;6.610;2022-10-30T22:07:02;15.30;99.90
3005;DHT22;1512;51.486;6.610;2022-10-30T22:11:11;15.40;99.90
3005;DHT22;1512;51.486;6.610;2022-10-30T22:15:20;15.40;99.90
3005;DHT22;1512;51.486;6.610;2022-10-30T22:19:29;15.40;99.90
3005;DHT22;1512;51.486;6.610;2022-10-30T22:23:39;15.30;99.90
3005;DHT22;1512;51.486;6.610;2022-10-30T22:28:07;15.30;99.90
3005;DHT22;1512;51.486;6.610;2022-10-30T22:32:16;15.30;99.90
3005;DHT22;1512;51.486;6.610;2022-10-30T22:36:27;15.30;99.90
3005;DHT22;1512;51.486;6.610;2022-10-30T22:40:36;15.20;99.90
3005;DHT22;1512;51.486;6.610;2022-10-30T22:44:44;15.20;99.90
3005;DHT22;1512;51.486;6.610;2022-10-30T22:48:54;15.20;99.90
3005;DHT22;1512;51.486;6.610;2022-10-30T22:53:02;15.20;99.90
3005;DHT22;1512;51.486;6.610;2022-10-30T22:57:11;15.10;99.90
3005;DHT22;1512;51.486;6.610;2022-10-30T23:01:25;15.10;99.90
3005;DHT22;1512;51.486;6.610;2022-10-30T23:05:34;15.10;99.90
3005;DHT22;1512;51.486;6.610;2022-10-30T23:09:43;15.10;99.90
3005;DHT22;1512;51.486;6.610;2022-10-30T23:13:51;15.10;99.90
3005;DHT22;1512;51.486;6.610;2022-10-30T23:18:00;15.00;99.90
3005;DHT22;1512;51.486;6.610;2022-10-30T23:22:09;15.00;99.90
3005;DHT22;1512;51.486;6.610;2022-10-30T23:26:24;15.00;99.90
3005;DHT22;1512;51.486;6.610;2022-10-30T23:30:33;14.90;99.90
3005;DHT22;1512;51.486;6.610;2022-10-30T23:35:02;14.90;99.90
3005;DHT22;1512;51.486;6.610;2022-10-30T23:39:14;14.90;99.90
3005;DHT22;1512;51.486;6.610;2022-10-30T23:43:43;14.80;99.90
3005;DHT22;1512;51.486;6.610;2022-10-30T23:47:51;14.80;99.90
3005;DHT22;1512;51.486;6.610;2022-10-30T23:52:00;14.80;99.90
3005;DHT22;1512;51.486;6.610;2022-10-30T23:56:09;14.80;99.90
